sensor_id;sensor_type;location;lat;lon;timestamp;pressure;altitude;pressure_sealevel;temperature;humidity
12951;BME280;6540;50.858;7.232;2023-04-01T00:00:08;51890.84;;;-142.34;30.69
12951;BME280;6540;50.858;7.232;2023-04-01T00:02:34;51870.69;;;-142.34;31.11
12951;BME280;6540;50.858;7.232;2023-04-01T00:05:00;51878.75;;;-142.34;31.46
12951;BME280;6540;50.858;7.232;2023-04-01T00:07:26;51874.72;;;-142.34;31.40
12951;BME280;6540;50.858;7.232;2023-04-01T00:09:52;51840.41;;;-142.34;31.86
12951;BME280;6540;50.858;7.232;2023-04-01T00:12:17;51884.81;;;-142.34;31.50
12951;BME280;6540;50.858;7.232;2023-04-01T00:14:43;51858.56;;;-142.34;31.21
12951;BME280;6540;50.858;7.232;2023-04-01T00:17:09;51890.84;;;-142.34;30.70
12951;BME280;6540;50.858;7.232;2023-04-01T00:19:34;51890.84;;;-142.34;30.73
12951;BME280;6540;50.858;7.232;2023-04-01T00:21:59;51860.59;;;-142.34;30.95
12951;BME280;6540;50.858;7.232;2023-04-01T00:24:25;51870.69;;;-142.34;30.59
12951;BME280;6540;50.858;7.232;2023-04-01T00:26:50;51882.78;;;-142.34;30.77
12951;BME280;6540;50.858;7.232;2023-04-01T00:29:15;51862.63;;;-142.34;30.02
12951;BME280;6540;50.858;7.232;2023-04-01T00:31:41;51858.56;;;-142.34;30.41
12951;BME280;6540;50.858;7.232;2023-04-01T00:34:06;51894.88;;;-142.34;31.57
12951;BME280;6540;50.858;7.232;2023-04-01T00:36:32;51870.69;;;-142.34;31.22
12951;BME280;6540;50.858;7.232;2023-04-01T00:38:58;51862.63;;;-142.34;30.01
12951;BME280;6540;50.858;7.232;2023-04-01T00:41:26;51902.97;;;-142.34;30.82
12951;BME280;6540;50.858;7.232;2023-04-01T00:44:15;51874.72;;;-142.34;30.87
12951;BME280;6540;50.858;7.232;2023-04-01T00:46:41;51878.75;;;-142.34;30.50
12951;BME280;6540;50.858;7.232;2023-04-01T00:49:06;51874.72;;;-142.34;30.41
12951;BME280;6540;50.858;7.232;2023-04-01T00:51:32;51878.75;;;-142.34;29.89
12951;BME280;6540;50.858;7.232;2023-04-01T00:53:59;51864.63;;;-142.34;30.33
12951;BME280;6540;50.858;7.232;2023-04-01T00:56:48;51844.47;;;-142.34;31.09
12951;BME280;6540;50.858;7.232;2023-04-01T00:59:21;51848.50;;;-142.34;30.19
12951;BME280;6540;50.858;7.232;2023-04-01T01:01:48;51862.63;;;-142.34;30.92
12951;BME280;6540;50.858;7.232;2023-04-01T01:04:26;51890.84;;;-142.34;29.05
12951;BME280;6540;50.858;7.232;2023-04-01T01:09:45;51826.31;;;-142.34;29.53
12951;BME280;6540;50.858;7.232;2023-04-01T01:12:32;51878.75;;;-142.34;29.08
12951;BME280;6540;50.858;7.232;2023-04-01T01:15:48;51888.84;;;-142.34;30.10
12951;BME280;6540;50.858;7.232;2023-04-01T01:26:12;51840.41;;;-142.34;29.41
12951;BME280;6540;50.858;7.232;2023-04-01T01:36:54;51836.38;;;-142.34;29.31
12951;BME280;6540;50.858;7.232;2023-04-01T01:39:25;51814.19;;;-142.34;30.54
12951;BME280;6540;50.858;7.232;2023-04-01T01:41:54;51872.69;;;-142.34;30.93
12951;BME280;6540;50.858;7.232;2023-04-01T01:44:21;51874.72;;;-142.34;31.57
12951;BME280;6540;50.858;7.232;2023-04-01T01:46:48;51854.53;;;-142.34;29.59
12951;BME280;6540;50.858;7.232;2023-04-01T01:49:15;51798.06;;;-142.34;31.52
12951;BME280;6540;50.858;7.232;2023-04-01T01:51:42;51864.63;;;-142.34;31.23
12951;BME280;6540;50.858;7.232;2023-04-01T01:54:12;51866.66;;;-142.34;30.06
12951;BME280;6540;50.858;7.232;2023-04-01T01:56:39;51846.47;;;-142.34;29.82
12951;BME280;6540;50.858;7.232;2023-04-01T01:59:08;51842.44;;;-142.34;30.36
12951;BME280;6540;50.858;7.232;2023-04-01T02:01:39;51870.69;;;-142.34;30.80
12951;BME280;6540;50.858;7.232;2023-04-01T02:04:07;51860.59;;;-142.34;30.12
12951;BME280;6540;50.858;7.232;2023-04-01T02:06:37;51844.47;;;-142.34;29.12
12951;BME280;6540;50.858;7.232;2023-04-01T02:09:06;51844.47;;;-142.34;29.33
12951;BME280;6540;50.858;7.232;2023-04-01T02:11:57;51864.63;;;-142.34;29.37
12951;BME280;6540;50.858;7.232;2023-04-01T02:14:28;51866.66;;;-142.34;30.12
12951;BME280;6540;50.858;7.232;2023-04-01T02:17:07;51846.47;;;-142.34;29.85
12951;BME280;6540;50.858;7.232;2023-04-01T02:19:56;51842.44;;;-142.34;29.36
12951;BME280;6540;50.858;7.232;2023-04-01T02:22:25;51846.47;;;-142.34;30.07
12951;BME280;6540;50.858;7.232;2023-04-01T02:24:56;51836.38;;;-142.34;29.46
12951;BME280;6540;50.858;7.232;2023-04-01T02:27:23;51854.53;;;-142.34;30.26
12951;BME280;6540;50.858;7.232;2023-04-01T02:29:50;51850.50;;;-142.34;30.37
12951;BME280;6540;50.858;7.232;2023-04-01T02:32:16;51878.75;;;-142.34;30.94
12951;BME280;6540;50.858;7.232;2023-04-01T02:34:43;51858.56;;;-142.34;30.24
12951;BME280;6540;50.858;7.232;2023-04-01T02:37:08;51820.25;;;-142.34;29.73
12951;BME280;6540;50.858;7.232;2023-04-01T02:39:33;51848.50;;;-142.34;30.84
12951;BME280;6540;50.858;7.232;2023-04-01T02:41:59;51830.34;;;-142.34;31.94
12951;BME280;6540;50.858;7.232;2023-04-01T02:44:25;51826.31;;;-142.34;30.58
12951;BME280;6540;50.858;7.232;2023-04-01T02:46:51;51874.72;;;-142.34;31.81
12951;BME280;6540;50.858;7.232;2023-04-01T02:49:17;51862.63;;;-142.34;31.63
12951;BME280;6540;50.858;7.232;2023-04-01T02:51:42;51874.72;;;-142.34;31.18
12951;BME280;6540;50.858;7.232;2023-04-01T02:54:08;51898.94;;;-142.34;33.29
12951;BME280;6540;50.858;7.232;2023-04-01T02:56:33;51882.78;;;-142.34;32.26
12951;BME280;6540;50.858;7.232;2023-04-01T02:58:58;51876.72;;;-142.34;32.05
12951;BME280;6540;50.858;7.232;2023-04-01T03:01:24;51882.78;;;-142.34;32.22
12951;BME280;6540;50.858;7.232;2023-04-01T03:03:49;51868.66;;;-142.34;32.70
12951;BME280;6540;50.858;7.232;2023-04-01T03:06:16;51866.66;;;-142.34;32.72
12951;BME280;6540;50.858;7.232;2023-04-01T03:08:41;51888.84;;;-142.34;33.03
12951;BME280;6540;50.858;7.232;2023-04-01T03:11:07;51866.66;;;-142.34;31.75
12951;BME280;6540;50.858;7.232;2023-04-01T03:13:32;51888.84;;;-142.34;31.96
12951;BME280;6540;50.858;7.232;2023-04-01T03:15:58;51890.84;;;-142.34;31.31
12951;BME280;6540;50.858;7.232;2023-04-01T03:18:23;51858.56;;;-142.34;31.69
12951;BME280;6540;50.858;7.232;2023-04-01T03:20:49;51880.78;;;-142.34;31.60
12951;BME280;6540;50.858;7.232;2023-04-01T03:23:14;51886.81;;;-142.34;31.11
12951;BME280;6540;50.858;7.232;2023-04-01T03:25:42;51870.69;;;-142.34;31.20
12951;BME280;6540;50.858;7.232;2023-04-01T03:28:08;51866.66;;;-142.34;30.70
12951;BME280;6540;50.858;7.232;2023-04-01T03:30:33;51812.19;;;-142.34;32.54
12951;BME280;6540;50.858;7.232;2023-04-01T03:32:59;51846.47;;;-142.34;31.30
12951;BME280;6540;50.858;7.232;2023-04-01T03:35:25;51850.50;;;-142.34;31.87
12951;BME280;6540;50.858;7.232;2023-04-01T03:37:52;51850.50;;;-142.34;30.77
12951;BME280;6540;50.858;7.232;2023-04-01T03:40:17;51872.69;;;-142.34;31.37
12951;BME280;6540;50.858;7.232;2023-04-01T03:42:43;51870.69;;;-142.34;30.81
12951;BME280;6540;50.858;7.232;2023-04-01T03:45:08;51862.63;;;-142.34;31.49
12951;BME280;6540;50.858;7.232;2023-04-01T03:47:34;51842.44;;;-142.34;31.41
12951;BME280;6540;50.858;7.232;2023-04-01T03:50:00;51850.50;;;-142.34;31.26
12951;BME280;6540;50.858;7.232;2023-04-01T03:52:25;51890.84;;;-142.34;31.01
12951;BME280;6540;50.858;7.232;2023-04-01T03:54:50;51854.53;;;-142.34;31.06
12951;BME280;6540;50.858;7.232;2023-04-01T03:57:16;51866.66;;;-142.34;31.41
12951;BME280;6540;50.858;7.232;2023-04-01T03:59:41;51864.63;;;-142.34;30.29
12951;BME280;6540;50.858;7.232;2023-04-01T04:02:06;51846.47;;;-142.34;31.11
12951;BME280;6540;50.858;7.232;2023-04-01T04:04:32;51842.44;;;-142.34;30.20
12951;BME280;6540;50.858;7.232;2023-04-01T04:06:57;51858.56;;;-142.34;29.60
12951;BME280;6540;50.858;7.232;2023-04-01T04:09:23;51860.59;;;-142.34;31.33
12951;BME280;6540;50.858;7.232;2023-04-01T04:11:49;51858.56;;;-142.34;33.02
12951;BME280;6540;50.858;7.232;2023-04-01T04:14:15;51844.47;;;-142.34;30.75
12951;BME280;6540;50.858;7.232;2023-04-01T04:16:40;51860.59;;;-142.34;30.50
12951;BME280;6540;50.858;7.232;2023-04-01T04:19:06;51802.09;;;-142.34;31.06
12951;BME280;6540;50.858;7.232;2023-04-01T04:21:31;51894.88;;;-142.34;31.21
12951;BME280;6540;50.858;7.232;2023-04-01T04:23:58;51816.22;;;-142.34;31.62
12951;BME280;6540;50.858;7.232;2023-04-01T04:26:24;51870.69;;;-142.34;32.07
12951;BME280;6540;50.858;7.232;2023-04-01T04:28:49;51854.53;;;-142.34;31.33
12951;BME280;6540;50.858;7.232;2023-04-01T04:31:19;51886.81;;;-142.34;32.40
12951;BME280;6540;50.858;7.232;2023-04-01T04:33:45;51880.78;;;-142.34;32.50
12951;BME280;6540;50.858;7.232;2023-04-01T04:36:11;51858.56;;;-142.34;31.96
12951;BME280;6540;50.858;7.232;2023-04-01T04:38:36;51890.84;;;-142.34;31.63
12951;BME280;6540;50.858;7.232;2023-04-01T04:41:01;51892.88;;;-142.34;32.59
12951;BME280;6540;50.858;7.232;2023-04-01T04:43:27;51854.53;;;-142.34;32.33
12951;BME280;6540;50.858;7.232;2023-04-01T04:45:52;51860.59;;;-142.34;31.44
12951;BME280;6540;50.858;7.232;2023-04-01T04:48:18;51862.63;;;-142.34;30.96
12951;BME280;6540;50.858;7.232;2023-04-01T04:50:45;51848.50;;;-142.34;31.86
12951;BME280;6540;50.858;7.232;2023-04-01T04:53:15;51884.81;;;-142.34;31.57
12951;BME280;6540;50.858;7.232;2023-04-01T04:55:45;51866.66;;;-142.34;31.90
12951;BME280;6540;50.858;7.232;2023-04-01T04:58:11;51880.78;;;-142.34;31.91
12951;BME280;6540;50.858;7.232;2023-04-01T05:00:36;51886.81;;;-142.34;32.25
12951;BME280;6540;50.858;7.232;2023-04-01T05:03:02;51876.72;;;-142.34;31.45
12951;BME280;6540;50.858;7.232;2023-04-01T05:05:27;51882.78;;;-142.34;32.01
12951;BME280;6540;50.858;7.232;2023-04-01T05:07:52;51822.25;;;-142.34;32.25
12951;BME280;6540;50.858;7.232;2023-04-01T05:10:18;51911.03;;;-142.34;31.62
12951;BME280;6540;50.858;7.232;2023-04-01T05:12:43;51878.75;;;-142.34;31.57
12951;BME280;6540;50.858;7.232;2023-04-01T05:15:08;51860.59;;;-142.34;31.62
12951;BME280;6540;50.858;7.232;2023-04-01T05:17:34;51854.53;;;-142.34;31.84
12951;BME280;6540;50.858;7.232;2023-04-01T05:20:00;51866.66;;;-142.34;32.73
12951;BME280;6540;50.858;7.232;2023-04-01T05:22:25;51882.78;;;-142.34;32.77
12951;BME280;6540;50.858;7.232;2023-04-01T05:24:51;51919.09;;;-142.34;32.15
12951;BME280;6540;50.858;7.232;2023-04-01T05:27:16;51850.50;;;-142.34;32.26
12951;BME280;6540;50.858;7.232;2023-04-01T05:29:44;51820.25;;;-142.34;30.22
12951;BME280;6540;50.858;7.232;2023-04-01T05:32:09;51870.69;;;-142.34;31.69
12951;BME280;6540;50.858;7.232;2023-04-01T05:34:35;51862.63;;;-142.34;31.01
12951;BME280;6540;50.858;7.232;2023-04-01T05:37:00;51828.31;;;-142.34;31.81
12951;BME280;6540;50.858;7.232;2023-04-01T05:39:25;51846.47;;;-142.34;30.18
12951;BME280;6540;50.858;7.232;2023-04-01T05:41:51;51858.56;;;-142.34;30.52
12951;BME280;6540;50.858;7.232;2023-04-01T05:44:16;51846.47;;;-142.34;30.92
12951;BME280;6540;50.858;7.232;2023-04-01T05:46:42;51832.34;;;-142.34;30.14
12951;BME280;6540;50.858;7.232;2023-04-01T05:49:08;51824.28;;;-142.34;30.92
12951;BME280;6540;50.858;7.232;2023-04-01T05:51:33;51862.63;;;-142.34;30.65
12951;BME280;6540;50.858;7.232;2023-04-01T05:53:58;51866.66;;;-142.34;30.98
12951;BME280;6540;50.858;7.232;2023-04-01T05:56:24;51816.22;;;-142.34;30.48
12951;BME280;6540;50.858;7.232;2023-04-01T05:58:54;51814.19;;;-142.34;31.23
12951;BME280;6540;50.858;7.232;2023-04-01T06:01:19;51836.38;;;-142.34;30.82
12951;BME280;6540;50.858;7.232;2023-04-01T06:03:45;51818.22;;;-142.34;30.30
12951;BME280;6540;50.858;7.232;2023-04-01T06:06:16;51798.06;;;-142.34;29.86
12951;BME280;6540;50.858;7.232;2023-04-01T06:08:45;51810.16;;;-142.34;31.66
12951;BME280;6540;50.858;7.232;2023-04-01T06:33:15;51818.22;;;-142.34;30.67
12951;BME280;6540;50.858;7.232;2023-04-01T06:39:03;51826.31;;;-142.34;31.88
12951;BME280;6540;50.858;7.232;2023-04-01T06:51:01;51818.22;;;-142.34;30.82
12951;BME280;6540;50.858;7.232;2023-04-01T06:56:42;51870.69;;;-142.34;32.33
12951;BME280;6540;50.858;7.232;2023-04-01T06:59:19;51846.47;;;-142.34;31.17
12951;BME280;6540;50.858;7.232;2023-04-01T07:01:50;51816.22;;;-142.34;31.04
12951;BME280;6540;50.858;7.232;2023-04-01T07:04:19;51838.41;;;-142.34;32.54
12951;BME280;6540;50.858;7.232;2023-04-01T07:07:00;51830.34;;;-142.34;31.72
12951;BME280;6540;50.858;7.232;2023-04-01T07:09:36;51838.41;;;-142.34;32.36
12951;BME280;6540;50.858;7.232;2023-04-01T07:12:11;51826.31;;;-142.34;32.76
12951;BME280;6540;50.858;7.232;2023-04-01T07:14:41;51818.22;;;-142.34;31.33
12951;BME280;6540;50.858;7.232;2023-04-01T07:17:15;51848.50;;;-142.34;32.59
12951;BME280;6540;50.858;7.232;2023-04-01T07:19:52;51836.38;;;-142.34;32.95
12951;BME280;6540;50.858;7.232;2023-04-01T07:22:34;51838.41;;;-142.34;32.53
12951;BME280;6540;50.858;7.232;2023-04-01T07:25:05;51828.31;;;-142.34;34.30
12951;BME280;6540;50.858;7.232;2023-04-01T07:27:36;51884.81;;;-142.34;33.17
12951;BME280;6540;50.858;7.232;2023-04-01T07:30:06;51842.44;;;-142.34;33.01
12951;BME280;6540;50.858;7.232;2023-04-01T07:32:52;51850.50;;;-142.34;33.82
12951;BME280;6540;50.858;7.232;2023-04-01T07:35:29;51866.66;;;-142.34;31.94
12951;BME280;6540;50.858;7.232;2023-04-01T07:38:33;51842.44;;;-142.34;30.76
12951;BME280;6540;50.858;7.232;2023-04-01T08:03:33;51860.59;;;-142.34;32.33
12951;BME280;6540;50.858;7.232;2023-04-01T08:06:00;51826.31;;;-142.34;33.88
12951;BME280;6540;50.858;7.232;2023-04-01T08:08:30;51850.50;;;-142.34;33.32
12951;BME280;6540;50.858;7.232;2023-04-01T08:11:08;51848.50;;;-142.34;35.26
12951;BME280;6540;50.858;7.232;2023-04-01T08:13:36;51854.53;;;-142.34;34.97
12951;BME280;6540;50.858;7.232;2023-04-01T08:19:00;51886.81;;;-142.34;33.64
12951;BME280;6540;50.858;7.232;2023-04-01T08:21:39;51854.53;;;-142.34;31.73
12951;BME280;6540;50.858;7.232;2023-04-01T08:24:16;51874.72;;;-142.34;35.32
12951;BME280;6540;50.858;7.232;2023-04-01T08:26:45;51874.72;;;-142.34;34.70
12951;BME280;6540;50.858;7.232;2023-04-01T08:29:23;51890.84;;;-142.34;34.41
12951;BME280;6540;50.858;7.232;2023-04-01T08:32:06;51870.69;;;-142.34;32.91
12951;BME280;6540;50.858;7.232;2023-04-01T08:34:37;51866.66;;;-142.34;33.93
12951;BME280;6540;50.858;7.232;2023-04-01T08:37:15;51870.69;;;-142.34;34.74
12951;BME280;6540;50.858;7.232;2023-04-01T08:39:54;51874.72;;;-142.34;34.02
12951;BME280;6540;50.858;7.232;2023-04-01T08:42:49;51862.63;;;-142.34;32.85
12951;BME280;6540;50.858;7.232;2023-04-01T08:45:34;51846.47;;;-142.34;33.68
12951;BME280;6540;50.858;7.232;2023-04-01T08:48:57;51866.66;;;-142.34;33.25
12951;BME280;6540;50.858;7.232;2023-04-01T08:52:15;51858.56;;;-142.34;34.53
12951;BME280;6540;50.858;7.232;2023-04-01T08:55:28;51876.72;;;-142.34;35.14
12951;BME280;6540;50.858;7.232;2023-04-01T09:00:56;51882.78;;;-142.34;34.75
12951;BME280;6540;50.858;7.232;2023-04-01T09:03:44;51876.72;;;-142.34;34.38
12951;BME280;6540;50.858;7.232;2023-04-01T09:11:50;51886.81;;;-142.34;34.84
12951;BME280;6540;50.858;7.232;2023-04-01T09:14:47;51854.53;;;-142.34;33.05
12951;BME280;6540;50.858;7.232;2023-04-01T09:17:50;51852.53;;;-142.34;34.46
12951;BME280;6540;50.858;7.232;2023-04-01T09:26:17;51858.56;;;-142.34;35.23
12951;BME280;6540;50.858;7.232;2023-04-01T09:29:14;51878.75;;;-142.34;34.66
12951;BME280;6540;50.858;7.232;2023-04-01T09:34:57;51878.75;;;-142.34;34.85
12951;BME280;6540;50.858;7.232;2023-04-01T09:37:48;51864.63;;;-142.34;35.62
12951;BME280;6540;50.858;7.232;2023-04-01T09:59:57;51890.84;;;-142.34;34.47
12951;BME280;6540;50.858;7.232;2023-04-01T10:20:12;51888.84;;;-142.34;34.56
12951;BME280;6540;50.858;7.232;2023-04-01T10:36:43;51878.75;;;-142.34;35.62
12951;BME280;6540;50.858;7.232;2023-04-01T10:53:35;51846.47;;;-142.34;34.77
12951;BME280;6540;50.858;7.232;2023-04-01T11:16:40;51858.56;;;-142.34;33.20
12951;BME280;6540;50.858;7.232;2023-04-01T11:43:19;51872.69;;;-142.34;31.66
12951;BME280;6540;50.858;7.232;2023-04-01T11:52:00;51830.34;;;-142.34;33.60
12951;BME280;6540;50.858;7.232;2023-04-01T11:54:20;51866.66;;;-142.34;32.58
12951;BME280;6540;50.858;7.232;2023-04-01T12:02:17;51866.66;;;-142.34;34.92
12951;BME280;6540;50.858;7.232;2023-04-01T12:06:02;51842.44;;;-142.34;33.32
12951;BME280;6540;50.858;7.232;2023-04-01T12:15:52;51844.47;;;-142.34;33.41
12951;BME280;6540;50.858;7.232;2023-04-01T12:35:19;51854.53;;;-142.34;33.45
12951;BME280;6540;50.858;7.232;2023-04-01T12:37:58;51826.31;;;-142.34;34.50
12951;BME280;6540;50.858;7.232;2023-04-01T12:40:45;51876.72;;;-142.34;33.01
12951;BME280;6540;50.858;7.232;2023-04-01T12:43:29;51854.53;;;-142.34;32.74
12951;BME280;6540;50.858;7.232;2023-04-01T12:46:24;51846.47;;;-142.34;33.41
12951;BME280;6540;50.858;7.232;2023-04-01T12:52:20;51846.47;;;-142.34;35.94
12951;BME280;6540;50.858;7.232;2023-04-01T13:08:43;51872.69;;;-142.34;33.92
12951;BME280;6540;50.858;7.232;2023-04-01T13:11:20;51858.56;;;-142.34;34.22
12951;BME280;6540;50.858;7.232;2023-04-01T13:13:58;51842.44;;;-142.34;34.03
12951;BME280;6540;50.858;7.232;2023-04-01T13:16:38;51870.69;;;-142.34;33.58
12951;BME280;6540;50.858;7.232;2023-04-01T13:19:09;51842.44;;;-142.34;31.22
12951;BME280;6540;50.858;7.232;2023-04-01T13:24:31;51842.44;;;-142.34;30.62
12951;BME280;6540;50.858;7.232;2023-04-01T13:27:14;51830.34;;;-142.34;31.19
12951;BME280;6540;50.858;7.232;2023-04-01T13:44:14;51822.25;;;-142.34;30.32
12951;BME280;6540;50.858;7.232;2023-04-01T13:47:08;51785.94;;;-142.34;30.64
12951;BME280;6540;50.858;7.232;2023-04-01T13:55:26;51826.31;;;-142.34;31.76
12951;BME280;6540;50.858;7.232;2023-04-01T13:58:28;51828.31;;;-142.34;31.31
12951;BME280;6540;50.858;7.232;2023-04-01T14:10:17;51812.19;;;-142.34;32.67
12951;BME280;6540;50.858;7.232;2023-04-01T14:18:14;51842.44;;;-142.34;31.93
12951;BME280;6540;50.858;7.232;2023-04-01T14:24:06;51822.25;;;-142.34;33.18
12951;BME280;6540;50.858;7.232;2023-04-01T14:27:09;51838.41;;;-142.34;33.27
12951;BME280;6540;50.858;7.232;2023-04-01T14:30:07;51848.50;;;-142.34;31.65
12951;BME280;6540;50.858;7.232;2023-04-01T14:38:30;51832.34;;;-142.34;31.21
12951;BME280;6540;50.858;7.232;2023-04-01T14:46:16;51818.22;;;-142.34;32.13
12951;BME280;6540;50.858;7.232;2023-04-01T14:48:52;51822.25;;;-142.34;33.70
12951;BME280;6540;50.858;7.232;2023-04-01T14:54:13;51824.28;;;-142.34;34.09
12951;BME280;6540;50.858;7.232;2023-04-01T14:56:44;51842.44;;;-142.34;32.70
12951;BME280;6540;50.858;7.232;2023-04-01T14:59:26;51820.25;;;-142.34;33.28
12951;BME280;6540;50.858;7.232;2023-04-01T15:02:02;51846.47;;;-142.34;32.98
12951;BME280;6540;50.858;7.232;2023-04-01T15:04:46;51838.41;;;-142.34;33.16
12951;BME280;6540;50.858;7.232;2023-04-01T15:10:39;51820.25;;;-142.34;31.84
12951;BME280;6540;50.858;7.232;2023-04-01T15:18:51;51850.50;;;-142.34;33.30
12951;BME280;6540;50.858;7.232;2023-04-01T15:21:31;51862.63;;;-142.34;33.92
12951;BME280;6540;50.858;7.232;2023-04-01T15:24:07;51842.44;;;-142.34;33.03
12951;BME280;6540;50.858;7.232;2023-04-01T15:26:51;51830.34;;;-142.34;33.37
12951;BME280;6540;50.858;7.232;2023-04-01T15:29:32;51822.25;;;-142.34;32.74
12951;BME280;6540;50.858;7.232;2023-04-01T15:40:22;51806.13;;;-142.34;32.45
12951;BME280;6540;50.858;7.232;2023-04-01T15:48:55;51832.34;;;-142.34;32.40
12951;BME280;6540;50.858;7.232;2023-04-01T16:02:21;51838.41;;;-142.34;33.08
12951;BME280;6540;50.858;7.232;2023-04-01T16:05:05;51864.63;;;-142.34;33.84
12951;BME280;6540;50.858;7.232;2023-04-01T16:13:38;51858.56;;;-142.34;32.98
12951;BME280;6540;50.858;7.232;2023-04-01T16:16:18;51822.25;;;-142.34;32.62
12951;BME280;6540;50.858;7.232;2023-04-01T16:24:22;51860.59;;;-142.34;31.88
12951;BME280;6540;50.858;7.232;2023-04-01T16:31:59;51830.34;;;-142.34;33.52
12951;BME280;6540;50.858;7.232;2023-04-01T16:34:47;51862.63;;;-142.34;33.98
12951;BME280;6540;50.858;7.232;2023-04-01T16:37:33;51878.75;;;-142.34;33.08
12951;BME280;6540;50.858;7.232;2023-04-01T16:42:52;51882.78;;;-142.34;33.39
12951;BME280;6540;50.858;7.232;2023-04-01T16:47:56;51824.28;;;-142.34;31.72
12951;BME280;6540;50.858;7.232;2023-04-01T16:50:24;51828.31;;;-142.34;30.94
12951;BME280;6540;50.858;7.232;2023-04-01T16:53:19;51816.22;;;-142.34;31.65
12951;BME280;6540;50.858;7.232;2023-04-01T16:55:54;51874.72;;;-142.34;33.62
12951;BME280;6540;50.858;7.232;2023-04-01T17:01:30;51858.56;;;-142.34;32.16
12951;BME280;6540;50.858;7.232;2023-04-01T17:04:00;51860.59;;;-142.34;32.53
12951;BME280;6540;50.858;7.232;2023-04-01T17:11:40;51840.41;;;-142.34;33.06
12951;BME280;6540;50.858;7.232;2023-04-01T17:28:05;51874.72;;;-142.34;31.67
12951;BME280;6540;50.858;7.232;2023-04-01T17:30:39;51824.28;;;-142.34;32.54
12951;BME280;6540;50.858;7.232;2023-04-01T17:35:59;51854.53;;;-142.34;32.50
12951;BME280;6540;50.858;7.232;2023-04-01T17:45:04;51818.22;;;-142.34;32.93
12951;BME280;6540;50.858;7.232;2023-04-01T17:55:15;51862.63;;;-142.34;32.67
12951;BME280;6540;50.858;7.232;2023-04-01T17:57:49;51840.41;;;-142.34;32.27
12951;BME280;6540;50.858;7.232;2023-04-01T18:06:04;51876.72;;;-142.34;32.53
12951;BME280;6540;50.858;7.232;2023-04-01T18:22:55;51842.44;;;-142.34;32.48
12951;BME280;6540;50.858;7.232;2023-04-01T18:25:43;51830.34;;;-142.34;32.16
12951;BME280;6540;50.858;7.232;2023-04-01T18:28:31;51848.50;;;-142.34;31.86
12951;BME280;6540;50.858;7.232;2023-04-01T18:39:11;51868.66;;;-142.34;33.52
12951;BME280;6540;50.858;7.232;2023-04-01T18:41:53;51866.66;;;-142.34;32.37
12951;BME280;6540;50.858;7.232;2023-04-01T18:44:43;51842.44;;;-142.34;31.86
12951;BME280;6540;50.858;7.232;2023-04-01T18:55:48;51852.53;;;-142.34;32.33
12951;BME280;6540;50.858;7.232;2023-04-01T18:58:25;51848.50;;;-142.34;31.78
12951;BME280;6540;50.858;7.232;2023-04-01T19:06:33;51840.41;;;-142.34;32.14
12951;BME280;6540;50.858;7.232;2023-04-01T19:09:15;51814.19;;;-142.34;31.74
12951;BME280;6540;50.858;7.232;2023-04-01T19:11:53;51852.53;;;-142.34;31.49
12951;BME280;6540;50.858;7.232;2023-04-01T19:20:20;51846.47;;;-142.34;31.39
12951;BME280;6540;50.858;7.232;2023-04-01T19:25:49;51773.84;;;-142.34;29.68
12951;BME280;6540;50.858;7.232;2023-04-01T19:47:07;51830.34;;;-142.34;32.67
12951;BME280;6540;50.858;7.232;2023-04-01T19:50:03;51836.38;;;-142.34;31.62
12951;BME280;6540;50.858;7.232;2023-04-01T19:52:37;51842.44;;;-142.34;30.95
12951;BME280;6540;50.858;7.232;2023-04-01T19:55:33;51826.31;;;-142.34;30.56
12951;BME280;6540;50.858;7.232;2023-04-01T20:00:53;51890.84;;;-142.34;31.31
12951;BME280;6540;50.858;7.232;2023-04-01T20:05:54;51816.22;;;-142.34;31.86
12951;BME280;6540;50.858;7.232;2023-04-01T20:11:34;51826.31;;;-142.34;30.31
12951;BME280;6540;50.858;7.232;2023-04-01T20:14:18;51806.13;;;-142.34;31.52
12951;BME280;6540;50.858;7.232;2023-04-01T20:16:54;51838.41;;;-142.34;33.29
12951;BME280;6540;50.858;7.232;2023-04-01T20:19:28;51840.41;;;-142.34;33.39
12951;BME280;6540;50.858;7.232;2023-04-01T20:21:59;51810.16;;;-142.34;32.36
12951;BME280;6540;50.858;7.232;2023-04-01T20:24:33;51862.63;;;-142.34;32.12
12951;BME280;6540;50.858;7.232;2023-04-01T20:27:14;51826.31;;;-142.34;32.47
12951;BME280;6540;50.858;7.232;2023-04-01T20:35:46;51798.06;;;-142.34;30.19
12951;BME280;6540;50.858;7.232;2023-04-01T20:41:06;51848.50;;;-142.34;31.27
12951;BME280;6540;50.858;7.232;2023-04-01T20:47:10;51826.31;;;-142.34;31.23
12951;BME280;6540;50.858;7.232;2023-04-01T20:49:32;51822.25;;;-142.34;31.73
12951;BME280;6540;50.858;7.232;2023-04-01T21:13:26;51806.13;;;-142.34;30.41
12951;BME280;6540;50.858;7.232;2023-04-01T21:27:16;51804.13;;;-142.34;30.61
12951;BME280;6540;50.858;7.232;2023-04-01T21:39:27;51842.44;;;-142.34;32.59
12951;BME280;6540;50.858;7.232;2023-04-01T22:00:24;51826.31;;;-142.34;29.27
12951;BME280;6540;50.858;7.232;2023-04-01T22:03:07;51792.00;;;-142.34;29.53
12951;BME280;6540;50.858;7.232;2023-04-01T22:11:01;51773.84;;;-142.34;29.90
12951;BME280;6540;50.858;7.232;2023-04-01T22:13:46;51777.88;;;-142.34;29.71
12951;BME280;6540;50.858;7.232;2023-04-01T22:29:35;51804.13;;;-142.34;29.34
12951;BME280;6540;50.858;7.232;2023-04-01T22:32:20;51739.56;;;-142.34;28.85
12951;BME280;6540;50.858;7.232;2023-04-01T22:38:01;51759.72;;;-142.34;29.28
12951;BME280;6540;50.858;7.232;2023-04-01T22:43:16;51775.88;;;-142.34;29.28
12951;BME280;6540;50.858;7.232;2023-04-01T22:48:44;51769.81;;;-142.34;28.75
12951;BME280;6540;50.858;7.232;2023-04-01T22:56:37;51753.69;;;-142.34;29.17
12951;BME280;6540;50.858;7.232;2023-04-01T22:59:17;51779.91;;;-142.34;28.89
12951;BME280;6540;50.858;7.232;2023-04-01T23:01:51;51749.66;;;-142.34;28.78
12951;BME280;6540;50.858;7.232;2023-04-01T23:04:22;51777.88;;;-142.34;28.92
12951;BME280;6540;50.858;7.232;2023-04-01T23:06:53;51765.78;;;-142.34;28.88
12951;BME280;6540;50.858;7.232;2023-04-01T23:09:34;51761.75;;;-142.34;29.43
12951;BME280;6540;50.858;7.232;2023-04-01T23:14:49;51757.72;;;-142.34;28.80
12951;BME280;6540;50.858;7.232;2023-04-01T23:17:52;51753.69;;;-142.34;28.98
12951;BME280;6540;50.858;7.232;2023-04-01T23:23:48;51717.38;;;-142.34;29.07